Time;durP1;ratioP1;P1;durP2;ratioP2;P2;SDS_P1;SDS_P2;PMS_P1;PMS_P2;Temp;Humidity;BMP_temperature;BMP_pressure;BME280_temperature;BME280_humidity;BME280_pressure;Samples;Min_cycle;Max_cycle;Signal;HPM_P1;HPM_P2
2021/01/02 00:01:43;;;;;;;46.40;28.05;;;-1.00;92.80;;;;;;5076030;28;20515;-83
2021/01/02 00:04:51;;;;;;;43.28;27.42;;;-1.10;92.90;;;;;;5075627;28;20406;-83
2021/01/02 00:07:56;;;;;;;47.03;28.33;;;-1.00;93.00;;;;;;5059894;28;20402;-83
2021/01/02 00:10:28;;;;;;;44.72;27.23;;;-1.00;92.90;;;;;;5094304;28;20406;-83
2021/01/02 00:13:36;;;;;;;44.70;27.83;;;-1.00;92.90;;;;;;5076028;28;20398;-83
2021/01/02 00:16:29;;;;;;;46.60;27.65;;;-1.00;92.80;;;;;;4976204;28;20410;-83
2021/01/02 00:19:48;;;;;;;44.20;27.27;;;-1.00;92.90;;;;;;5093847;28;20397;-83
2021/01/02 00:22:40;;;;;;;42.78;26.50;;;-1.00;92.90;;;;;;4991853;28;20445;-83
2021/01/02 00:25:15;;;;;;;43.78;27.25;;;-0.80;92.60;;;;;;5071005;28;20475;-83
2021/01/02 00:27:50;;;;;;;44.13;26.95;;;-0.80;92.00;;;;;;5094050;28;20479;-83
2021/01/02 00:30:55;;;;;;;47.10;27.55;;;-0.90;92.30;;;;;;5075562;28;20794;-83
2021/01/02 00:33:44;;;;;;;44.30;26.55;;;-1.00;92.50;;;;;;5038589;28;21261;-83
2021/01/02 00:36:21;;;;;;;47.13;27.80;;;-1.00;92.60;;;;;;5075962;28;20413;-83
2021/01/02 00:38:48;;;;;;;49.83;29.20;;;-1.00;92.70;;;;;;5093268;28;20405;-83
2021/01/02 00:41:17;;;;;;;47.47;28.30;;;-0.90;92.60;;;;;;5075824;28;20422;-83
2021/01/02 00:43:46;;;;;;;48.67;28.48;;;-0.90;92.50;;;;;;5093323;28;20483;-83
2021/01/02 00:46:12;;;;;;;47.70;27.57;;;-0.90;92.60;;;;;;5092179;28;20406;-83
2021/01/02 00:48:40;;;;;;;66.18;34.17;;;-0.90;92.40;;;;;;5093331;28;20439;-82
2021/01/02 00:51:11;;;;;;;68.40;34.88;;;-0.90;93.00;;;;;;5093114;28;20421;-83
2021/01/02 00:53:45;;;;;;;64.33;33.87;;;-0.80;93.20;;;;;;5074661;28;20814;-83
2021/01/02 00:56:25;;;;;;;63.60;34.10;;;-0.80;93.30;;;;;;5093723;28;20614;-83
2021/01/02 00:58:58;;;;;;;59.53;32.22;;;-0.80;93.20;;;;;;5092990;28;20516;-83
2021/01/02 01:01:44;;;;;;;59.50;31.70;;;-0.80;93.10;;;;;;5092668;28;20988;-83
2021/01/02 01:04:32;;;;;;;69.00;34.28;;;-0.80;93.10;;;;;;5051816;28;20404;-82
2021/01/02 01:07:00;;;;;;;73.00;35.90;;;-0.80;93.20;;;;;;5054824;28;20403;-83
2021/01/02 01:09:27;;;;;;;78.70;38.97;;;-0.80;93.60;;;;;;5072562;28;20946;-83
2021/01/02 01:11:54;;;;;;;80.45;39.38;;;-0.80;93.60;;;;;;5072611;28;20395;-83
2021/01/02 01:14:24;;;;;;;84.40;40.83;;;-0.60;93.70;;;;;;5054805;28;20481;-83
2021/01/02 01:16:57;;;;;;;83.35;40.92;;;-0.70;93.80;;;;;;5054794;28;20431;-82
2021/01/02 01:19:28;;;;;;;83.05;40.28;;;-0.60;93.60;;;;;;5054277;28;20440;-83
2021/01/02 01:21:58;;;;;;;81.75;40.38;;;-0.60;93.40;;;;;;5054362;28;20427;-83
2021/01/02 01:24:43;;;;;;;86.55;40.13;;;-0.70;93.80;;;;;;5038647;28;20864;-83
2021/01/02 01:27:48;;;;;;;69.72;35.85;;;-0.60;93.80;;;;;;5072839;28;20399;-83
2021/01/02 01:30:23;;;;;;;64.82;33.67;;;-0.70;93.40;;;;;;5054180;28;20443;-83
2021/01/02 01:33:01;;;;;;;67.80;34.65;;;-0.70;93.10;;;;;;5049825;28;20400;-83
2021/01/02 01:35:30;;;;;;;81.70;39.53;;;-0.70;93.20;;;;;;5053896;28;21624;-84
2021/01/02 01:37:58;;;;;;;84.47;40.22;;;-0.70;93.70;;;;;;5071858;28;20477;-83
2021/01/02 01:40:30;;;;;;;82.65;38.83;;;-0.70;93.70;;;;;;5072358;28;20415;-83
2021/01/02 01:43:05;;;;;;;88.27;41.37;;;-0.70;93.80;;;;;;5053759;28;20408;-83
2021/01/02 01:45:38;;;;;;;87.93;41.70;;;-0.60;94.00;;;;;;5071950;28;20758;-82
2021/01/02 01:48:11;;;;;;;87.23;41.80;;;-0.60;94.00;;;;;;5071586;28;20404;-83
2021/01/02 01:50:59;;;;;;;84.03;40.70;;;-0.60;93.90;;;;;;5054515;28;20399;-83
2021/01/02 01:54:03;;;;;;;56.33;30.77;;;-0.50;93.90;;;;;;5071409;28;20419;-83
2021/01/02 01:56:34;;;;;;;55.97;29.67;;;-0.40;92.60;;;;;;5053733;28;20424;-83
2021/01/02 01:59:19;;;;;;;49.92;29.17;;;-0.50;92.30;;;;;;5072232;28;20854;-83
2021/01/02 02:01:51;;;;;;;51.45;28.25;;;-0.50;92.30;;;;;;5054133;28;20809;-83
2021/01/02 02:04:43;;;;;;;48.22;27.45;;;-0.50;92.30;;;;;;5053874;28;20423;-83
2021/01/02 02:07:17;;;;;;;48.88;28.23;;;-0.60;92.20;;;;;;5072229;28;20395;-83
2021/01/02 02:09:59;;;;;;;49.65;27.77;;;-0.70;92.50;;;;;;5071473;28;20445;-83
2021/01/02 02:12:31;;;;;;;46.83;27.52;;;-0.70;92.70;;;;;;5071781;28;20730;-83
2021/01/02 02:14:58;;;;;;;51.20;28.80;;;-0.70;92.40;;;;;;5053794;28;20453;-83
2021/01/02 02:17:40;;;;;;;50.50;29.00;;;-0.70;92.40;;;;;;5071485;28;21121;-83
2021/01/02 02:20:17;;;;;;;52.70;27.57;;;-0.80;92.60;;;;;;5070888;28;20404;-83
2021/01/02 02:22:44;;;;;;;52.83;28.90;;;-0.60;92.70;;;;;;5036992;28;20408;-83
2021/01/02 02:25:17;;;;;;;47.95;27.52;;;-0.50;92.10;;;;;;5053211;28;20400;-83
2021/01/02 02:27:47;;;;;;;49.75;27.05;;;-0.50;92.20;;;;;;5068502;28;20419;-83
2021/01/02 02:30:24;;;;;;;49.70;27.52;;;-0.50;91.70;;;;;;5053630;28;20473;-83
2021/01/02 02:32:51;;;;;;;50.85;27.67;;;-0.60;91.80;;;;;;5071054;28;21011;-83
2021/01/02 02:35:19;;;;;;;49.80;27.85;;;-0.60;92.20;;;;;;5071233;28;20432;-83
2021/01/02 02:37:52;;;;;;;48.58;27.35;;;-0.60;92.10;;;;;;5071427;28;20416;-83
2021/01/02 02:40:20;;;;;;;52.27;28.63;;;-0.70;92.00;;;;;;5053445;28;20500;-83
2021/01/02 02:42:54;;;;;;;49.95;27.90;;;-0.60;92.00;;;;;;5053849;28;20419;-83
2021/01/02 02:45:23;;;;;;;49.83;27.83;;;-0.50;91.80;;;;;;5053110;28;20507;-83
2021/01/02 02:47:54;;;;;;;46.00;27.23;;;-0.50;91.80;;;;;;5053174;28;20424;-83
2021/01/02 02:50:26;;;;;;;47.47;27.23;;;-0.50;91.80;;;;;;5053592;28;20476;-83
2021/01/02 02:53:04;;;;;;;44.80;26.23;;;-0.40;91.80;;;;;;5071440;28;20398;-83
2021/01/02 02:55:35;;;;;;;47.10;26.70;;;-0.50;91.50;;;;;;5054587;28;20402;-83
2021/01/02 02:58:03;;;;;;;43.23;25.93;;;-0.40;91.50;;;;;;5053858;28;20395;-83
2021/01/02 03:00:30;;;;;;;43.42;25.98;;;-0.50;91.40;;;;;;5053014;28;20485;-83
2021/01/02 03:02:57;;;;;;;44.67;25.90;;;-0.60;91.70;;;;;;5046552;28;20463;-83
2021/01/02 03:05:25;;;;;;;49.30;27.30;;;-0.60;91.80;;;;;;5074061;28;20870;-83
2021/01/02 03:07:51;;;;;;;48.38;27.20;;;-0.70;92.10;;;;;;5091519;28;20505;-83
2021/01/02 03:10:20;;;;;;;46.97;26.88;;;-0.80;92.50;;;;;;5093260;28;20414;-83
2021/01/02 03:12:49;;;;;;;44.70;27.08;;;-0.70;92.70;;;;;;5076964;28;20416;-83
2021/01/02 03:15:19;;;;;;;49.45;27.25;;;-0.60;92.00;;;;;;5060743;28;20392;-83
2021/01/02 03:17:46;;;;;;;50.45;27.70;;;-0.60;92.00;;;;;;5077368;28;20471;-83
2021/01/02 03:20:16;;;;;;;47.00;26.95;;;-0.70;92.10;;;;;;5094826;28;20418;-83
2021/01/02 03:22:46;;;;;;;53.28;29.17;;;-0.80;92.30;;;;;;5094710;28;20459;-83
2021/01/02 03:25:14;;;;;;;59.08;30.95;;;-0.80;92.60;;;;;;5076833;28;20887;-83
2021/01/02 03:27:41;;;;;;;56.63;30.50;;;-0.80;92.80;;;;;;5076601;28;20467;-83
2021/01/02 03:30:13;;;;;;;66.20;33.65;;;-0.80;92.90;;;;;;5095273;28;20398;-83
2021/01/02 03:32:40;;;;;;;65.82;33.50;;;-0.80;93.10;;;;;;5077210;28;20410;-82
2021/01/02 03:35:10;;;;;;;67.50;33.40;;;-0.80;93.30;;;;;;5094809;28;20397;-82
2021/01/02 03:37:38;;;;;;;69.38;34.65;;;-0.80;93.40;;;;;;5076633;28;20428;-83
2021/01/02 03:40:09;;;;;;;70.23;33.90;;;-0.70;93.50;;;;;;5094836;28;20394;-83
2021/01/02 03:42:47;;;;;;;68.55;32.72;;;-0.70;93.60;;;;;;5075979;28;20920;-83
2021/01/02 03:45:15;;;;;;;66.90;32.88;;;-0.70;93.40;;;;;;5076511;28;20405;-83
2021/01/02 03:47:46;;;;;;;64.65;31.40;;;-0.60;93.60;;;;;;5093740;28;20483;-84
2021/01/02 03:50:15;;;;;;;66.60;32.72;;;-0.60;93.50;;;;;;5094142;28;20867;-83
2021/01/02 03:52:42;;;;;;;67.35;32.17;;;-0.60;93.70;;;;;;5076834;28;20393;-83
2021/01/02 03:55:10;;;;;;;62.53;31.85;;;-0.60;93.70;;;;;;5076404;28;20398;-84
2021/01/02 03:57:37;;;;;;;65.50;32.28;;;-0.60;93.60;;;;;;5094246;28;20436;-83
2021/01/02 04:00:07;;;;;;;66.40;33.20;;;-0.60;93.80;;;;;;5076347;28;20390;-83
2021/01/02 04:02:35;;;;;;;64.68;32.33;;;-0.50;93.70;;;;;;5093346;28;20942;-83
2021/01/02 04:05:05;;;;;;;65.05;33.20;;;-0.50;93.70;;;;;;5075960;28;20441;-83
2021/01/02 04:07:32;;;;;;;66.75;33.78;;;-0.60;93.70;;;;;;5076643;28;20390;-83
2021/01/02 04:09:59;;;;;;;67.53;33.47;;;-0.50;93.70;;;;;;5093921;28;20405;-83
2021/01/02 04:12:26;;;;;;;67.70;33.47;;;-0.50;93.70;;;;;;5075807;28;20440;-83
2021/01/02 04:14:53;;;;;;;75.28;35.05;;;-0.40;93.60;;;;;;5076276;28;20402;-83
2021/01/02 04:17:19;;;;;;;77.07;35.53;;;-0.50;93.70;;;;;;5075465;28;20455;-82
2021/01/02 04:19:46;;;;;;;71.97;34.27;;;-0.50;93.90;;;;;;5075977;28;20453;-83
2021/01/02 04:22:12;;;;;;;67.95;32.83;;;-0.50;93.80;;;;;;5073961;28;20445;-83
2021/01/02 04:24:39;;;;;;;72.43;35.05;;;-0.50;93.90;;;;;;5076145;28;20390;-83
2021/01/02 04:27:07;;;;;;;69.60;33.38;;;-0.50;93.70;;;;;;5075773;28;20398;-83
2021/01/02 04:29:34;;;;;;;63.47;31.80;;;-0.50;93.80;;;;;;5075070;28;20499;-83
2021/01/02 04:32:02;;;;;;;70.38;32.35;;;-0.50;93.80;;;;;;5075901;28;20755;-83
2021/01/02 04:34:29;;;;;;;73.13;32.83;;;-0.60;93.80;;;;;;5075708;28;20459;-83
2021/01/02 04:36:55;;;;;;;65.78;32.88;;;-0.60;94.20;;;;;;5075827;28;20425;-83
2021/01/02 04:39:24;;;;;;;67.88;31.92;;;-0.50;94.00;;;;;;5093474;28;20386;-82
2021/01/02 04:41:50;;;;;;;68.28;32.95;;;-0.50;94.00;;;;;;5093511;28;20457;-83
2021/01/02 04:44:17;;;;;;;68.35;33.50;;;-0.50;93.80;;;;;;5093761;28;20391;-83
2021/01/02 04:46:45;;;;;;;76.57;36.00;;;-0.50;93.90;;;;;;5058561;28;20390;-82
2021/01/02 04:49:12;;;;;;;77.20;36.20;;;-0.50;93.80;;;;;;5093121;28;20499;-83
2021/01/02 04:51:39;;;;;;;77.40;36.67;;;-0.50;93.80;;;;;;5075377;28;20469;-83
2021/01/02 04:54:06;;;;;;;87.93;38.80;;;-0.50;93.80;;;;;;5093275;28;20442;-83
2021/01/02 04:56:35;;;;;;;87.70;39.40;;;-0.40;93.80;;;;;;5075379;28;20452;-83
2021/01/02 04:59:05;;;;;;;87.22;40.42;;;-0.50;93.80;;;;;;5092838;28;20467;-83
2021/01/02 05:01:34;;;;;;;92.38;40.35;;;-0.60;94.00;;;;;;5093293;28;20768;-83
2021/01/02 05:04:01;;;;;;;89.53;40.75;;;-0.60;94.30;;;;;;5074587;28;20513;-83
2021/01/02 05:06:28;;;;;;;88.57;39.78;;;-0.60;94.30;;;;;;5093041;28;20490;-83
2021/01/02 05:08:55;;;;;;;84.43;38.08;;;-0.50;94.30;;;;;;5074607;28;20406;-83
2021/01/02 05:11:27;;;;;;;80.07;37.83;;;-0.40;94.10;;;;;;5074565;28;20410;-83
2021/01/02 05:14:01;;;;;;;86.97;38.55;;;-0.40;93.70;;;;;;5074789;28;20468;-83
2021/01/02 05:16:38;;;;;;;79.13;37.13;;;-0.50;94.00;;;;;;5074234;28;20410;-83
2021/01/02 05:19:07;;;;;;;80.88;37.65;;;-0.40;93.80;;;;;;5074998;28;20386;-83
2021/01/02 05:21:37;;;;;;;73.85;35.97;;;-0.50;93.90;;;;;;5092441;28;20425;-83
2021/01/02 05:24:14;;;;;;;79.55;36.83;;;-0.60;94.00;;;;;;5092525;28;20447;-83
2021/01/02 05:27:07;;;;;;;78.15;36.13;;;-0.60;94.30;;;;;;5074483;28;20828;-83
2021/01/02 05:29:34;;;;;;;77.38;35.97;;;-0.60;94.30;;;;;;5070260;28;20468;-83
2021/01/02 05:32:03;;;;;;;77.20;35.33;;;-0.60;94.30;;;;;;5074371;28;20447;-83
2021/01/02 05:34:32;;;;;;;79.25;36.95;;;-0.60;94.40;;;;;;5093017;28;20872;-83
2021/01/02 05:37:08;;;;;;;78.93;36.20;;;-0.60;94.30;;;;;;5074331;28;20405;-83
2021/01/02 05:39:40;;;;;;;77.07;35.85;;;-0.60;94.30;;;;;;5073877;28;20839;-83
2021/01/02 05:42:08;;;;;;;79.80;35.80;;;-0.50;94.40;;;;;;5092015;28;20807;-82
2021/01/02 05:44:37;;;;;;;83.82;37.35;;;-0.50;94.20;;;;;;5074532;28;20390;-82
2021/01/02 05:47:05;;;;;;;77.32;36.42;;;-0.50;94.30;;;;;;5092316;28;20398;-82
2021/01/02 05:49:39;;;;;;;84.30;36.57;;;-0.60;94.30;;;;;;5074410;28;20409;-82
2021/01/02 05:52:11;;;;;;;78.05;35.17;;;-0.50;94.30;;;;;;5074663;28;20394;-83
2021/01/02 05:54:42;;;;;;;77.07;34.95;;;-0.50;94.10;;;;;;5073838;28;20445;-83
2021/01/02 05:57:09;;;;;;;75.47;35.72;;;-0.50;94.20;;;;;;5074258;28;20401;-83
2021/01/02 05:59:44;;;;;;;74.07;34.47;;;-0.50;94.30;;;;;;5091862;28;20401;-83
2021/01/02 06:02:30;;;;;;;72.95;34.22;;;-0.50;94.10;;;;;;5073684;28;20417;-83
2021/01/02 06:05:08;;;;;;;75.20;34.90;;;-0.50;94.00;;;;;;5074612;28;20394;-83
2021/01/02 06:07:39;;;;;;;68.22;33.30;;;-0.50;93.90;;;;;;5069477;28;20405;-82
2021/01/02 06:10:08;;;;;;;74.88;34.50;;;-0.50;94.10;;;;;;5092163;28;20925;-82
2021/01/02 06:12:39;;;;;;;73.55;33.72;;;-0.50;94.00;;;;;;5073433;28;20471;-83
2021/01/02 06:15:11;;;;;;;72.40;34.25;;;-0.50;94.10;;;;;;5086006;28;20410;-82
2021/01/02 06:17:39;;;;;;;73.45;34.10;;;-0.50;94.10;;;;;;5091754;28;20447;-82
2021/01/02 06:20:11;;;;;;;68.75;33.47;;;-0.50;93.70;;;;;;5073215;28;20467;-83
2021/01/02 06:22:40;;;;;;;71.03;33.55;;;-0.50;93.90;;;;;;5073540;28;20494;-83
2021/01/02 06:25:09;;;;;;;73.75;34.13;;;-0.50;93.80;;;;;;5074364;28;20450;-83
2021/01/02 06:27:45;;;;;;;72.55;33.85;;;-0.50;93.80;;;;;;5073600;28;20401;-83
2021/01/02 06:30:17;;;;;;;72.78;33.67;;;-0.60;93.90;;;;;;5074145;28;20397;-83
2021/01/02 06:32:48;;;;;;;71.60;33.60;;;-0.60;94.00;;;;;;5091766;28;20413;-83
2021/01/02 06:35:21;;;;;;;72.18;33.28;;;-0.60;94.10;;;;;;5091694;28;20390;-83
2021/01/02 06:37:47;;;;;;;67.50;32.60;;;-0.60;93.90;;;;;;5091599;28;20436;-83
2021/01/02 06:40:29;;;;;;;70.32;32.72;;;-0.60;93.90;;;;;;5091639;28;20464;-83
2021/01/02 06:43:00;;;;;;;64.75;30.85;;;-0.60;94.00;;;;;;5091047;28;20425;-83
2021/01/02 06:45:36;;;;;;;65.35;31.73;;;-0.60;93.70;;;;;;5076421;28;20397;-83
2021/01/02 06:48:20;;;;;;;67.97;32.13;;;-0.50;93.70;;;;;;5095789;28;20389;-83
2021/01/02 06:50:52;;;;;;;65.82;31.58;;;-0.50;93.70;;;;;;5077315;28;20903;-83
2021/01/02 06:53:32;;;;;;;67.70;31.95;;;-0.50;93.50;;;;;;5095207;28;20420;-83
2021/01/02 06:56:00;;;;;;;61.53;30.93;;;-0.50;93.70;;;;;;5095201;28;20472;-83
2021/01/02 06:58:37;;;;;;;62.53;31.23;;;-0.60;93.70;;;;;;5094422;28;20560;-83
2021/01/02 07:01:05;;;;;;;61.92;29.98;;;-0.60;93.70;;;;;;5077080;28;20425;-83
2021/01/02 07:03:48;;;;;;;64.55;31.45;;;-0.40;93.50;;;;;;5076562;28;20414;-83
2021/01/02 07:08:58;;;;;;;69.00;32.37;;;-0.50;93.80;;;;;;5094264;28;20420;-83
2021/01/02 07:11:37;;;;;;;66.63;31.45;;;-0.50;93.80;;;;;;5095394;28;20596;-83
2021/01/02 07:14:14;;;;;;;64.22;31.25;;;-0.50;93.60;;;;;;5076809;28;20502;-83
2021/01/02 07:16:51;;;;;;;66.47;31.40;;;-0.40;93.60;;;;;;5077718;28;20409;-83
2021/01/02 07:19:32;;;;;;;68.60;32.63;;;-0.50;93.50;;;;;;5094304;28;20933;-83
2021/01/02 07:22:06;;;;;;;66.23;31.77;;;-0.50;93.80;;;;;;5076207;28;20453;-83
2021/01/02 07:24:52;;;;;;;62.63;30.45;;;-0.60;93.90;;;;;;5076954;28;20459;-83
2021/01/02 07:27:24;;;;;;;68.65;32.50;;;-0.60;93.80;;;;;;5094208;28;20406;-82
2021/01/02 07:29:54;;;;;;;69.35;32.33;;;-0.60;94.00;;;;;;5094461;28;20475;-83
2021/01/02 07:32:29;;;;;;;66.35;32.10;;;-0.60;94.20;;;;;;5077096;28;20792;-83
2021/01/02 07:35:02;;;;;;;67.57;31.85;;;-0.60;94.00;;;;;;5076953;28;20452;-83
2021/01/02 07:37:33;;;;;;;74.93;35.60;;;-0.50;94.00;;;;;;5077091;28;20418;-83
2021/01/02 07:40:11;;;;;;;72.47;34.33;;;-0.50;94.00;;;;;;5077074;28;20405;-83
2021/01/02 07:42:39;;;;;;;73.30;35.45;;;-0.50;93.80;;;;;;5076944;28;20472;-83
2021/01/02 07:45:13;;;;;;;71.57;34.95;;;-0.50;93.80;;;;;;5094800;28;20397;-83
2021/01/02 07:47:50;;;;;;;69.65;33.10;;;-0.50;93.70;;;;;;5089729;28;20390;-83
2021/01/02 07:50:19;;;;;;;68.45;32.78;;;-0.50;93.90;;;;;;5076702;28;20414;-84
2021/01/02 07:52:54;;;;;;;66.13;33.53;;;-0.50;94.00;;;;;;5094564;28;20478;-83
2021/01/02 07:55:33;;;;;;;74.97;34.45;;;-0.50;94.00;;;;;;5075523;28;21269;-83
2021/01/02 07:58:00;;;;;;;69.50;32.97;;;-0.50;94.20;;;;;;5071932;28;20818;-82
2021/01/02 08:00:28;;;;;;;67.70;32.88;;;-0.50;94.20;;;;;;5094240;28;20425;-82
2021/01/02 08:03:02;;;;;;;70.23;32.53;;;-0.50;94.20;;;;;;5072486;28;20782;-82
2021/01/02 08:05:29;;;;;;;65.28;31.85;;;-0.40;94.40;;;;;;5076518;28;20394;-82
2021/01/02 08:08:01;;;;;;;64.15;32.55;;;-0.40;94.30;;;;;;5094796;28;20386;-82
2021/01/02 08:10:29;;;;;;;74.45;33.55;;;-0.40;94.30;;;;;;5075664;28;20460;-82
2021/01/02 08:13:02;;;;;;;71.82;33.70;;;-0.30;94.40;;;;;;5093315;28;20487;-82
2021/01/02 08:15:36;;;;;;;72.82;35.03;;;-0.30;94.60;;;;;;5093769;28;20418;-82
2021/01/02 08:18:12;;;;;;;69.20;33.60;;;-0.30;94.60;;;;;;5073261;28;20400;-82
2021/01/02 08:20:39;;;;;;;68.20;33.40;;;-0.30;94.70;;;;;;5075789;28;20468;-82
2021/01/02 08:23:13;;;;;;;68.35;33.83;;;-0.30;94.60;;;;;;5094026;28;20469;-83
2021/01/02 08:25:42;;;;;;;74.50;37.22;;;-0.30;94.40;;;;;;5093742;28;20404;-82
2021/01/02 08:28:09;;;;;;;69.70;36.05;;;-0.20;94.30;;;;;;5076031;28;20386;-82
2021/01/02 08:30:36;;;;;;;68.90;34.17;;;-0.30;94.20;;;;;;5075393;28;20426;-82
2021/01/02 08:33:04;;;;;;;71.80;34.03;;;-0.20;94.20;;;;;;5093239;28;20455;-82
2021/01/02 08:35:40;;;;;;;67.07;34.35;;;-0.20;94.20;;;;;;5075173;28;20463;-82
2021/01/02 08:38:08;;;;;;;68.72;33.97;;;-0.20;94.10;;;;;;5093652;28;20580;-82
2021/01/02 08:40:37;;;;;;;66.20;33.33;;;-0.20;93.90;;;;;;5074429;28;20405;-82
2021/01/02 08:43:04;;;;;;;66.93;33.78;;;-0.20;94.00;;;;;;5093177;28;20483;-81
2021/01/02 08:45:39;;;;;;;66.15;32.88;;;-0.20;94.00;;;;;;5093104;28;20405;-82
2021/01/02 08:48:08;;;;;;;65.55;32.13;;;-0.20;93.90;;;;;;5092973;28;20397;-82
2021/01/02 08:50:39;;;;;;;65.95;33.75;;;-0.20;93.90;;;;;;5075272;28;20414;-82
2021/01/02 08:53:06;;;;;;;64.40;33.20;;;-0.20;93.80;;;;;;5075631;28;20890;-82
2021/01/02 08:55:33;;;;;;;67.30;32.67;;;-0.20;93.90;;;;;;5092735;28;20414;-82
2021/01/02 08:58:01;;;;;;;67.27;33.47;;;-0.10;93.90;;;;;;5075156;28;20394;-82
2021/01/02 09:00:31;;;;;;;64.53;32.40;;;-0.10;93.90;;;;;;5075216;28;20394;-82
2021/01/02 09:03:02;;;;;;;69.47;34.08;;;-0.10;94.00;;;;;;5074479;28;20784;-82
2021/01/02 09:05:37;;;;;;;74.20;34.53;;;-0.10;93.90;;;;;;5093194;28;20502;-82
2021/01/02 09:08:16;;;;;;;73.03;33.60;;;-0.10;94.10;;;;;;5092576;28;20836;-82
2021/01/02 09:10:44;;;;;;;66.22;32.40;;;-0.10;93.90;;;;;;5075639;28;20861;-82
2021/01/02 09:13:20;;;;;;;70.70;34.42;;;0.00;93.60;;;;;;5092695;28;20409;-82
2021/01/02 09:15:56;;;;;;;65.82;32.85;;;0.00;93.80;;;;;;5092837;28;20421;-82
2021/01/02 09:18:31;;;;;;;65.60;31.95;;;0.00;93.90;;;;;;5093007;28;20398;-82
2021/01/02 09:21:14;;;;;;;67.63;33.92;;;0.00;93.70;;;;;;5074945;28;20393;-82
2021/01/02 09:23:56;;;;;;;67.57;32.30;;;0.00;93.70;;;;;;5092394;28;20409;-82
2021/01/02 09:26:27;;;;;;;67.07;31.52;;;0.00;93.70;;;;;;5092915;28;20807;-82
2021/01/02 09:28:57;;;;;;;66.53;31.77;;;0.00;93.80;;;;;;5091684;28;20410;-82
2021/01/02 09:31:24;;;;;;;62.35;31.17;;;0.00;93.70;;;;;;5092517;28;20409;-82
2021/01/02 09:33:54;;;;;;;63.90;31.00;;;0.10;93.70;;;;;;5074761;28;20441;-82
2021/01/02 09:36:21;;;;;;;61.90;30.67;;;0.10;93.80;;;;;;5092386;28;20528;-80
2021/01/02 09:38:49;;;;;;;64.95;31.20;;;0.10;93.80;;;;;;5091920;28;20422;-80
2021/01/02 09:41:21;;;;;;;53.67;28.52;;;0.10;93.90;;;;;;5074899;28;20887;-81
2021/01/02 09:43:49;;;;;;;65.82;31.23;;;0.10;93.60;;;;;;5092698;28;20382;-82
2021/01/02 09:46:17;;;;;;;58.55;29.58;;;0.10;93.70;;;;;;5074130;28;20404;-82
2021/01/02 09:48:48;;;;;;;58.22;30.23;;;0.00;93.50;;;;;;5074717;28;20403;-81
2021/01/02 09:51:16;;;;;;;65.28;31.45;;;0.00;93.70;;;;;;5091865;28;20511;-81
2021/01/02 09:53:43;;;;;;;60.43;29.73;;;0.10;93.80;;;;;;5074396;28;20417;-81
2021/01/02 09:56:11;;;;;;;60.08;30.15;;;0.10;93.70;;;;;;5092359;28;20410;-81
2021/01/02 09:58:42;;;;;;;61.15;29.42;;;0.10;93.60;;;;;;5074283;28;20414;-82
2021/01/02 10:01:08;;;;;;;64.38;33.55;;;0.10;93.80;;;;;;5074562;28;20871;-84
2021/01/02 10:03:35;;;;;;;63.95;33.60;;;0.10;93.80;;;;;;5074577;28;20437;-82
2021/01/02 10:06:03;;;;;;;62.58;31.75;;;0.10;93.90;;;;;;5074466;28;20410;-84
2021/01/02 10:08:30;;;;;;;60.90;30.42;;;0.20;93.60;;;;;;5074792;28;20405;-85
2021/01/02 10:10:56;;;;;;;66.35;30.75;;;0.20;93.70;;;;;;5091683;28;20831;-83
2021/01/02 10:13:23;;;;;;;58.45;28.88;;;0.20;93.50;;;;;;5092342;28;20418;-84
2021/01/02 10:15:49;;;;;;;58.63;29.45;;;0.20;93.50;;;;;;5074117;28;20879;-83
2021/01/02 10:18:16;;;;;;;64.53;30.40;;;0.30;93.50;;;;;;5074192;28;20410;-83
2021/01/02 10:20:43;;;;;;;58.97;29.23;;;0.30;93.50;;;;;;5090744;28;20414;-84
2021/01/02 10:23:10;;;;;;;60.63;29.50;;;0.30;93.50;;;;;;5073551;28;20426;-84
2021/01/02 10:25:39;;;;;;;56.88;28.75;;;0.30;93.40;;;;;;5069326;28;20479;-83
2021/01/02 10:28:08;;;;;;;56.40;28.52;;;0.30;93.50;;;;;;5072820;28;20398;-83
2021/01/02 10:30:36;;;;;;;56.00;28.20;;;0.30;93.30;;;;;;5091327;28;20402;-82
2021/01/02 10:33:03;;;;;;;57.83;28.77;;;0.30;93.30;;;;;;5072790;28;20406;-82
2021/01/02 10:35:35;;;;;;;59.22;28.83;;;0.30;93.20;;;;;;5073916;28;20487;-84
2021/01/02 10:38:03;;;;;;;58.47;28.87;;;0.30;93.30;;;;;;5091950;28;20427;-84
2021/01/02 10:40:33;;;;;;;57.65;28.13;;;0.30;93.40;;;;;;5074281;28;20465;-85
2021/01/02 10:43:04;;;;;;;59.58;29.02;;;0.20;93.30;;;;;;5073580;28;20880;-83
2021/01/02 10:45:32;;;;;;;56.40;28.92;;;0.30;93.40;;;;;;5073495;28;20867;-83
2021/01/02 10:48:01;;;;;;;59.40;28.63;;;0.30;93.30;;;;;;5073132;28;20402;-83
2021/01/02 10:50:29;;;;;;;60.95;28.70;;;0.30;93.40;;;;;;5091594;28;20858;-84
2021/01/02 10:52:57;;;;;;;63.17;29.52;;;0.30;93.30;;;;;;5072877;28;20880;-84
2021/01/02 10:55:24;;;;;;;57.58;28.00;;;0.40;93.20;;;;;;5074004;28;20405;-84
2021/01/02 10:57:51;;;;;;;65.97;28.88;;;0.40;93.10;;;;;;5073667;28;20451;-85
2021/01/02 11:00:18;;;;;;;61.92;28.25;;;0.30;92.90;;;;;;5091784;28;20409;-83
2021/01/02 11:02:46;;;;;;;61.47;28.95;;;0.40;92.90;;;;;;5063675;28;20435;-83
2021/01/02 11:05:13;;;;;;;59.08;27.48;;;0.30;93.10;;;;;;5067785;28;20762;-82
2021/01/02 11:07:39;;;;;;;55.17;27.38;;;0.30;93.20;;;;;;5070551;28;20411;-81
2021/01/02 11:10:07;;;;;;;56.55;26.55;;;0.30;93.20;;;;;;5053341;28;20450;-81
2021/01/02 11:12:33;;;;;;;56.00;27.50;;;0.30;93.20;;;;;;5071007;28;20734;-81
2021/01/02 11:15:00;;;;;;;57.83;27.45;;;0.30;93.30;;;;;;5052610;28;20420;-82
2021/01/02 11:17:26;;;;;;;53.70;27.15;;;0.30;93.20;;;;;;5052390;28;20439;-81
2021/01/02 11:19:53;;;;;;;58.50;26.67;;;0.20;93.20;;;;;;5070450;28;20473;-81
2021/01/02 11:22:20;;;;;;;59.93;28.07;;;0.20;93.30;;;;;;5070753;28;20506;-80
2021/01/02 11:24:48;;;;;;;58.65;27.85;;;0.30;93.40;;;;;;5044223;28;20784;-80
2021/01/02 11:27:18;;;;;;;58.88;28.50;;;0.20;93.60;;;;;;5039007;28;20414;-82
2021/01/02 11:29:49;;;;;;;56.17;27.93;;;0.20;93.60;;;;;;5068938;28;20433;-83
2021/01/02 11:32:15;;;;;;;60.75;29.25;;;0.20;93.50;;;;;;5074151;28;20465;-81
2021/01/02 11:34:44;;;;;;;60.42;29.55;;;0.20;93.50;;;;;;5076417;28;20449;-81
2021/01/02 11:37:13;;;;;;;59.78;28.65;;;0.30;93.60;;;;;;5076974;28;20463;-83
2021/01/02 11:39:40;;;;;;;63.88;29.33;;;0.30;93.60;;;;;;5069643;28;20416;-82
2021/01/02 11:42:09;;;;;;;62.50;29.10;;;0.30;93.70;;;;;;5068997;28;20423;-82
2021/01/02 11:44:36;;;;;;;61.95;28.35;;;0.30;93.40;;;;;;5055950;28;20419;-83
2021/01/02 11:47:06;;;;;;;68.38;28.52;;;0.30;93.40;;;;;;5073939;28;20746;-83
2021/01/02 11:49:35;;;;;;;64.85;29.42;;;0.30;93.40;;;;;;5057007;28;20765;-83
2021/01/02 11:52:05;;;;;;;61.55;29.27;;;0.30;93.40;;;;;;5063173;28;20412;-83
2021/01/02 11:54:34;;;;;;;67.65;29.70;;;0.30;93.60;;;;;;5055869;28;20396;-82
2021/01/02 11:57:05;;;;;;;63.00;30.17;;;0.30;93.60;;;;;;5073598;28;20400;-82
2021/01/02 11:59:33;;;;;;;65.88;30.58;;;0.30;93.50;;;;;;5055299;28;20407;-82
2021/01/02 12:02:01;;;;;;;69.35;31.92;;;0.30;93.60;;;;;;5074897;28;20423;-83
2021/01/02 12:04:30;;;;;;;71.00;32.17;;;0.30;93.60;;;;;;5075070;28;21046;-83
2021/01/02 12:06:58;;;;;;;67.90;31.25;;;0.30;93.60;;;;;;5094239;28;20397;-82
2021/01/02 12:09:27;;;;;;;70.40;31.30;;;0.30;93.60;;;;;;5076442;28;20390;-83
2021/01/02 12:11:57;;;;;;;68.90;30.55;;;0.30;93.60;;;;;;5093427;28;20448;-82
2021/01/02 12:14:28;;;;;;;64.05;29.73;;;0.30;93.70;;;;;;5093376;28;20442;-82
2021/01/02 12:16:56;;;;;;;67.88;29.83;;;0.30;93.70;;;;;;5074795;28;20673;-83
2021/01/02 12:19:29;;;;;;;64.40;30.08;;;0.30;93.60;;;;;;5075516;28;20418;-82
2021/01/02 12:22:06;;;;;;;62.83;29.30;;;0.20;93.80;;;;;;5075009;28;20518;-82
2021/01/02 12:24:33;;;;;;;60.97;28.75;;;0.30;93.70;;;;;;5067447;28;20906;-83
2021/01/02 12:27:06;;;;;;;61.78;28.15;;;0.30;93.50;;;;;;5093560;28;20394;-83
2021/01/02 12:29:38;;;;;;;63.43;28.53;;;0.30;93.40;;;;;;5074915;28;20451;-82
2021/01/02 12:32:07;;;;;;;62.30;28.15;;;0.30;93.40;;;;;;5075628;28;20402;-82
2021/01/02 12:34:37;;;;;;;56.17;27.70;;;0.30;93.30;;;;;;5093302;28;20952;-82
2021/01/02 12:37:06;;;;;;;64.17;29.73;;;0.30;93.30;;;;;;5093298;28;20422;-82
2021/01/02 12:39:38;;;;;;;65.47;29.70;;;0.40;93.40;;;;;;5075301;28;20413;-82
2021/01/02 12:42:05;;;;;;;72.07;29.77;;;0.30;93.50;;;;;;5091610;28;20510;-82
2021/01/02 12:44:33;;;;;;;68.30;30.50;;;0.30;93.60;;;;;;5092993;28;20432;-82
2021/01/02 12:47:12;;;;;;;72.30;30.77;;;0.30;93.60;;;;;;5074785;28;21209;-82
2021/01/02 12:49:44;;;;;;;64.53;30.02;;;0.40;93.80;;;;;;5075036;28;20402;-82
2021/01/02 12:52:14;;;;;;;70.80;31.87;;;0.40;93.70;;;;;;5092464;28;20452;-81
2021/01/02 12:54:40;;;;;;;70.70;31.60;;;0.50;93.70;;;;;;5075424;28;20876;-81
2021/01/02 12:57:07;;;;;;;70.47;31.57;;;0.50;93.70;;;;;;5074944;28;20402;-82